createdAt,value
2024-01-15T00:00:36.299Z,65.67
2024-01-15T00:01:36.252Z,65.36
2024-01-15T00:02:36.268Z,64.42
2024-01-15T00:03:36.423Z,66.18
2024-01-15T00:57:54.235Z,63.91
2024-01-15T00:58:36.880Z,67.16
2024-01-15T00:59:36.869Z,83.69
2024-01-15T01:00:37.265Z,107.89
2024-01-15T01:01:36.890Z,134.68
2024-01-15T01:02:36.888Z,163.51
2024-01-15T01:03:36.936Z,162.62
2024-01-15T01:04:36.945Z,150.25
2024-01-15T01:05:36.913Z,141.41
2024-01-15T01:06:36.931Z,132.39
2024-01-15T01:07:37.199Z,124.92
2024-01-15T01:08:36.879Z,119.09
2024-01-15T01:09:36.939Z,112.53
2024-01-15T01:10:36.880Z,110.10
2024-01-15T01:11:36.897Z,106.70
2024-01-15T01:12:36.947Z,104.60
2024-01-15T01:13:36.916Z,100.17
2024-01-15T01:14:36.881Z,96.30
2024-01-15T01:15:36.976Z,92.41
2024-01-15T01:16:36.884Z,90.36
2024-01-15T01:17:36.950Z,89.36
2024-01-15T01:18:37.049Z,86.03
2024-01-15T01:19:37.047Z,86.06
2024-01-15T01:20:36.972Z,83.67
2024-01-15T01:21:36.924Z,83.57
2024-01-15T01:22:36.886Z,77.00
2024-01-15T01:23:36.881Z,79.23
2024-01-15T01:24:36.992Z,77.86
2024-01-15T01:25:36.899Z,78.11
2024-01-15T01:26:36.886Z,74.51
2024-01-15T01:27:36.917Z,74.99
2024-01-15T01:28:36.917Z,70.03
2024-01-15T01:29:36.992Z,74.48
2024-01-15T01:30:37.179Z,72.00
2024-01-15T01:31:37.179Z,71.86
2024-01-15T01:32:37.104Z,71.49
2024-01-15T01:33:37.943Z,69.64
2024-01-15T01:34:37.372Z,67.62
2024-01-15T01:35:37.203Z,72.37
2024-01-15T01:36:38.226Z,67.99
2024-01-15T01:37:37.264Z,69.52
2024-01-15T01:38:37.314Z,67.56
2024-01-15T01:39:37.397Z,67.02
2024-01-15T01:40:37.376Z,67.01
2024-01-15T01:41:37.430Z,66.90
2024-01-15T01:42:37.564Z,65.32
2024-01-15T01:43:37.907Z,64.63
2024-01-15T01:44:37.907Z,63.81
2024-01-15T01:45:37.999Z,65.22
2024-01-15T01:46:37.908Z,61.94
2024-01-15T01:47:37.928Z,64.68
2024-01-15T01:48:38.133Z,62.19
2024-01-15T01:49:38.130Z,63.14
2024-01-15T01:50:38.705Z,64.45
2024-01-15T01:51:37.955Z,63.65
2024-01-15T01:52:37.946Z,63.10
2024-01-15T01:53:37.904Z,64.56
2024-01-15T01:54:38.084Z,62.11
2024-01-15T01:55:37.974Z,65.26
2024-01-15T01:56:38.023Z,62.75
2024-01-15T01:57:38.100Z,61.50
2024-01-15T01:58:38.088Z,62.56
2024-01-15T01:59:38.139Z,61.47
2024-01-15T02:00:38.255Z,60.37
2024-01-15T02:01:38.288Z,61.79
2024-01-15T02:02:38.314Z,60.65
2024-01-15T02:03:38.477Z,62.19
2024-01-15T02:04:38.352Z,60.60
2024-01-15T02:05:38.408Z,60.28
2024-01-15T02:06:39.265Z,60.69
2024-01-15T02:07:38.458Z,60.13
2024-01-15T02:08:38.486Z,62.19
2024-01-15T02:09:38.537Z,60.73
2024-01-15T02:10:38.565Z,58.57
2024-01-15T02:11:38.607Z,59.17
2024-01-15T02:12:39.221Z,61.98
2024-01-15T02:13:38.720Z,61.17
2024-01-15T02:14:38.739Z,59.47
2024-01-15T02:15:38.795Z,59.38
2024-01-15T02:16:38.812Z,58.38
2024-01-15T02:17:38.881Z,62.64
2024-01-15T02:18:39.033Z,60.90
2024-01-15T02:19:39.020Z,61.71
2024-01-15T02:20:39.700Z,60.89
2024-01-15T02:21:39.042Z,57.33
2024-01-15T02:22:39.024Z,57.64
2024-01-15T02:23:39.077Z,61.40
2024-01-15T02:24:39.177Z,60.23
2024-01-15T02:25:39.145Z,59.52
2024-01-15T02:26:39.206Z,60.49
2024-01-15T02:27:39.296Z,60.13
2024-01-15T02:28:39.268Z,61.16
2024-01-15T02:29:39.321Z,60.06
2024-01-15T02:30:39.499Z,60.21
2024-01-15T02:31:39.610Z,60.24
2024-01-15T02:32:39.563Z,58.34
2024-01-15T02:33:39.603Z,60.97
2024-01-15T02:34:39.790Z,58.07
2024-01-15T02:35:39.566Z,61.10
2024-01-15T02:36:39.654Z,60.21
2024-01-15T02:37:40.206Z,58.72
2024-01-15T02:38:39.684Z,60.69
2024-01-15T02:39:39.794Z,59.62
2024-01-15T02:40:39.806Z,59.09
2024-01-15T02:41:40.300Z,61.83
2024-01-15T02:42:39.926Z,59.95
2024-01-15T02:43:39.897Z,60.20
2024-01-15T02:44:39.959Z,57.81
2024-01-15T02:45:40.041Z,59.44
2024-01-15T02:46:40.050Z,58.29
2024-01-15T02:47:40.755Z,58.67
2024-01-15T02:48:40.210Z,57.88
2024-01-15T02:49:40.331Z,59.41
2024-01-15T02:50:40.198Z,57.85
2024-01-15T02:51:40.305Z,60.70
2024-01-15T02:52:40.279Z,60.49
2024-01-15T02:53:41.211Z,60.73
2024-01-15T02:54:41.269Z,61.36
2024-01-15T02:55:41.216Z,59.68
2024-01-15T02:56:40.441Z,57.33
2024-01-15T02:57:40.516Z,56.31
2024-01-15T02:58:40.517Z,58.85
2024-01-15T02:59:40.651Z,58.30
2024-01-15T03:00:40.699Z,60.89
2024-01-15T03:01:40.731Z,59.42
2024-01-15T03:02:42.240Z,58.05
2024-01-15T03:03:41.232Z,58.17
2024-01-15T03:04:41.285Z,58.13
2024-01-15T03:05:40.771Z,56.86
2024-01-15T03:06:40.748Z,57.51
2024-01-15T03:07:41.215Z,58.00
2024-01-15T03:08:40.718Z,58.23
2024-01-15T03:09:40.766Z,56.36
2024-01-15T03:10:40.708Z,56.28
2024-01-15T03:11:40.723Z,58.05
2024-01-15T03:12:40.812Z,57.69
2024-01-15T03:13:40.716Z,55.25
2024-01-15T03:14:40.710Z,60.50
2024-01-15T03:15:40.786Z,57.84
2024-01-15T03:16:40.712Z,54.47
2024-01-15T03:17:40.787Z,59.06
2024-01-15T03:18:40.831Z,59.14
2024-01-15T03:19:40.819Z,56.97
2024-01-15T03:20:40.743Z,56.32
2024-01-15T03:21:40.830Z,58.74
2024-01-15T03:22:40.735Z,58.51
2024-01-15T03:23:40.732Z,57.84
2024-01-15T03:24:40.856Z,55.53
2024-01-15T03:25:40.739Z,57.38
2024-01-15T03:26:40.743Z,57.32
2024-01-15T03:27:40.772Z,58.45
2024-01-15T03:28:40.805Z,58.09
2024-01-15T03:29:40.842Z,58.16
2024-01-15T03:30:40.965Z,58.11
2024-01-15T03:31:41.867Z,56.69
2024-01-15T03:32:41.039Z,56.49
2024-01-15T03:33:41.172Z,57.99
2024-01-15T03:34:41.102Z,58.46
2024-01-15T03:35:41.108Z,57.92
2024-01-15T03:36:41.197Z,57.93
2024-01-15T03:37:41.225Z,55.56
2024-01-15T03:38:42.241Z,58.89
2024-01-15T03:39:41.373Z,57.40
2024-01-15T03:40:41.405Z,54.70
2024-01-15T03:41:41.363Z,56.65
2024-01-15T03:42:41.437Z,58.92
2024-01-15T03:43:41.448Z,58.18
2024-01-15T03:44:41.486Z,56.15
2024-01-15T03:45:42.290Z,56.79
2024-01-15T03:46:41.582Z,53.11
2024-01-15T03:47:44.339Z,56.44
2024-01-15T03:48:41.798Z,59.04
2024-01-15T03:49:41.783Z,56.63
2024-01-15T03:50:41.625Z,56.34
2024-01-15T03:51:41.715Z,57.88
2024-01-15T03:52:41.627Z,53.16
2024-01-15T03:53:41.656Z,56.90
2024-01-15T03:54:41.663Z,57.38
2024-01-15T03:55:41.648Z,57.30
2024-01-15T03:56:41.641Z,56.56
2024-01-15T03:57:41.671Z,56.79
2024-01-15T03:58:42.242Z,57.29
2024-01-15T03:59:41.630Z,57.20
2024-01-15T04:00:41.807Z,56.74
2024-01-15T04:01:44.280Z,56.51
2024-01-15T04:02:41.668Z,56.54
2024-01-15T04:03:42.343Z,57.00
2024-01-15T04:04:41.682Z,56.89
2024-01-15T04:05:41.688Z,57.66
2024-01-15T04:06:42.393Z,56.97
2024-01-15T04:07:41.644Z,53.82
2024-01-15T04:08:41.654Z,59.00
2024-01-15T04:09:41.718Z,56.69
2024-01-15T04:10:41.669Z,58.32
2024-01-15T04:11:41.746Z,57.84
2024-01-15T04:12:41.785Z,58.34
2024-01-15T04:13:42.850Z,57.34
2024-01-15T04:14:41.653Z,56.86
2024-01-15T04:15:41.711Z,56.87
2024-01-15T04:16:41.652Z,58.25
2024-01-15T04:17:41.809Z,56.70
2024-01-15T04:18:42.296Z,54.54
2024-01-15T04:19:41.786Z,59.24
2024-01-15T04:20:41.781Z,57.99
2024-01-15T04:21:41.865Z,56.14
2024-01-15T04:22:41.887Z,57.46
2024-01-15T04:23:41.935Z,56.15
2024-01-15T04:24:41.975Z,52.89
2024-01-15T04:25:42.034Z,56.36
2024-01-15T04:26:42.048Z,56.19
2024-01-15T04:27:42.288Z,56.51
2024-01-15T04:28:42.144Z,56.00
2024-01-15T04:29:42.306Z,57.29
2024-01-15T04:30:42.298Z,56.77
2024-01-15T04:31:42.460Z,55.18
2024-01-15T04:32:42.392Z,57.12
2024-01-15T04:33:43.335Z,55.75
2024-01-15T04:34:43.294Z,54.96
2024-01-15T04:35:42.456Z,56.58
2024-01-15T04:36:42.598Z,55.15
2024-01-15T04:37:42.552Z,55.61
2024-01-15T04:38:42.939Z,55.56
2024-01-15T04:39:43.131Z,57.64
2024-01-15T04:40:42.995Z,58.05
2024-01-15T04:41:43.017Z,53.63
2024-01-15T04:42:43.021Z,55.92
2024-01-15T04:43:42.993Z,55.28
2024-01-15T04:44:42.989Z,55.44
2024-01-15T04:45:50.083Z,57.28
2024-01-15T04:46:42.997Z,57.33
2024-01-15T04:47:43.012Z,55.79
2024-01-15T04:48:43.213Z,56.53
2024-01-15T04:49:51.309Z,50.00
2024-01-15T04:50:51.565Z,50.00
2024-01-15T04:51:51.673Z,50.00
2024-01-15T04:52:51.575Z,50.00
2024-01-15T04:53:51.548Z,50.00
2024-01-15T04:54:51.607Z,54.56
2024-01-15T04:55:51.563Z,52.27
2024-01-15T04:56:51.592Z,53.64
2024-01-15T04:57:51.673Z,52.33
2024-01-15T04:58:51.557Z,54.89
2024-01-15T04:59:51.559Z,52.98
2024-01-15T05:00:51.680Z,53.00
2024-01-15T05:01:51.641Z,53.28
2024-01-15T05:02:51.626Z,52.86
2024-01-15T05:03:51.802Z,52.25
2024-01-15T05:04:51.568Z,53.10
2024-01-15T05:05:51.625Z,52.19
2024-01-15T05:06:51.651Z,54.58
2024-01-15T05:07:51.600Z,52.65
2024-01-15T05:08:51.584Z,52.37
2024-01-15T05:09:51.702Z,52.13
2024-01-15T05:10:51.596Z,54.57
2024-01-15T05:11:51.576Z,52.25
2024-01-15T05:12:51.699Z,51.50
2024-01-15T05:13:51.623Z,55.21
2024-01-15T05:14:51.656Z,53.30
2024-01-15T05:15:51.746Z,52.35
2024-01-15T05:16:51.750Z,53.82
2024-01-15T05:17:51.878Z,51.41
2024-01-15T05:18:52.081Z,51.28
2024-01-15T05:19:52.957Z,50.40
2024-01-15T05:20:51.931Z,50.36
2024-01-15T05:21:52.046Z,54.91
2024-01-15T05:22:51.982Z,52.46
2024-01-15T05:23:52.041Z,56.02
2024-01-15T05:24:52.113Z,53.88
2024-01-15T05:25:52.133Z,55.07
2024-01-15T05:26:52.161Z,52.98
2024-01-15T05:27:52.275Z,52.34
2024-01-15T05:28:52.270Z,55.89
2024-01-15T05:29:52.295Z,53.40
2024-01-15T05:30:52.453Z,54.22
2024-01-15T05:31:52.481Z,54.98
2024-01-15T05:32:52.461Z,53.30
2024-01-15T05:33:52.591Z,53.37
2024-01-15T05:34:52.514Z,50.32
2024-01-15T05:35:52.557Z,53.12
2024-01-15T05:36:52.680Z,52.61
2024-01-15T05:37:52.641Z,54.87
2024-01-15T05:38:52.684Z,53.67
2024-01-15T05:39:52.786Z,53.04
2024-01-15T05:40:52.784Z,52.74
2024-01-15T05:41:52.844Z,55.25
2024-01-15T05:42:52.993Z,55.37
2024-01-15T05:43:52.931Z,54.73
2024-01-15T05:44:52.992Z,55.58
2024-01-15T05:45:53.131Z,52.88
2024-01-15T05:46:53.063Z,55.79
2024-01-15T05:47:53.174Z,53.97
2024-01-15T05:48:53.362Z,55.26
2024-01-15T05:49:53.317Z,54.62
2024-01-15T05:50:53.260Z,52.49
2024-01-15T05:51:53.386Z,55.96
2024-01-15T05:52:53.367Z,53.61
2024-01-15T05:53:53.410Z,54.31
2024-01-15T05:54:53.471Z,54.64
2024-01-15T05:55:53.540Z,53.91
2024-01-15T05:56:53.514Z,54.05
2024-01-15T05:57:53.782Z,55.31
2024-01-15T05:58:53.667Z,51.64
2024-01-15T05:59:53.785Z,55.15
2024-01-15T06:00:53.886Z,53.91
2024-01-15T06:01:53.929Z,53.81
2024-01-15T06:02:53.766Z,53.67
2024-01-15T06:03:53.898Z,54.32
2024-01-15T06:04:53.963Z,57.65
2024-01-15T06:05:53.947Z,56.40
2024-01-15T06:06:53.951Z,54.52
2024-01-15T06:07:53.978Z,53.90
2024-01-15T06:08:54.031Z,53.32
2024-01-15T06:09:54.097Z,55.42
2024-01-15T06:10:54.105Z,54.14
2024-01-15T06:11:54.170Z,53.79
2024-01-15T06:12:54.250Z,52.18
2024-01-15T06:13:54.270Z,54.87
2024-01-15T06:14:54.289Z,54.82
2024-01-15T06:15:55.126Z,55.48
2024-01-15T06:16:54.393Z,53.28
2024-01-15T06:17:54.475Z,53.69
2024-01-15T06:18:54.637Z,55.04
2024-01-15T06:19:54.595Z,55.49
2024-01-15T06:20:55.038Z,51.46
2024-01-15T06:21:54.694Z,52.84
2024-01-15T06:22:55.000Z,53.94
2024-01-15T06:23:55.059Z,53.08
2024-01-15T06:24:55.140Z,54.90
2024-01-15T06:25:55.199Z,54.65
2024-01-15T06:26:55.061Z,54.06
2024-01-15T06:27:56.096Z,54.61
2024-01-15T06:28:55.035Z,50.19
2024-01-15T06:29:55.043Z,51.86
2024-01-15T06:30:55.243Z,54.79
2024-01-15T06:31:55.185Z,54.44
2024-01-15T06:32:55.159Z,53.96
2024-01-15T06:33:55.267Z,54.00
2024-01-15T06:34:55.173Z,53.36
2024-01-15T06:35:55.206Z,51.92
2024-01-15T06:36:55.351Z,54.71
2024-01-15T06:37:55.700Z,54.84
2024-01-15T06:38:55.345Z,53.38
2024-01-15T06:39:55.460Z,53.61
2024-01-15T06:40:55.700Z,52.07
2024-01-15T06:41:55.469Z,52.34
2024-01-15T06:42:55.536Z,52.53
2024-01-15T06:43:55.550Z,51.58
2024-01-15T06:44:55.605Z,53.50
2024-01-15T06:45:56.462Z,53.21
2024-01-15T06:46:56.136Z,53.10
2024-01-15T06:47:55.840Z,52.35
2024-01-15T06:48:55.984Z,50.73
2024-01-15T06:49:56.575Z,51.63
2024-01-15T06:50:56.209Z,51.61
2024-01-15T06:51:56.251Z,51.65
2024-01-15T06:52:56.142Z,53.79
2024-01-15T06:53:56.192Z,52.05
2024-01-15T06:54:57.280Z,54.93
2024-01-15T06:55:56.735Z,55.24
2024-01-15T06:56:56.355Z,56.57
2024-01-15T06:57:56.443Z,55.53
2024-01-15T06:58:56.397Z,54.42
2024-01-15T06:59:56.398Z,55.96
2024-01-15T07:00:56.792Z,59.91
2024-01-15T07:01:56.477Z,61.66
2024-01-15T07:02:56.579Z,67.19
2024-01-15T07:03:57.695Z,67.09
2024-01-15T07:05:03.903Z,65.50
2024-01-15T07:05:57.180Z,65.62
2024-01-15T07:06:58.101Z,65.73
2024-01-15T07:07:56.656Z,66.16
2024-01-15T07:08:57.020Z,67.11
2024-01-15T07:09:57.050Z,67.96
2024-01-15T07:10:57.067Z,71.64
2024-01-15T07:11:57.219Z,71.44
2024-01-15T07:12:57.201Z,70.37
2024-01-15T07:13:57.126Z,71.36
2024-01-15T07:14:57.575Z,71.15
2024-01-15T07:15:57.422Z,70.95
2024-01-15T07:16:57.275Z,71.42
2024-01-15T07:17:57.191Z,72.72
2024-01-15T07:18:57.161Z,72.56
2024-01-15T07:19:57.254Z,73.75
2024-01-15T07:20:57.112Z,74.52
2024-01-15T07:21:57.638Z,74.89
2024-01-15T07:22:57.095Z,74.87
2024-01-15T07:23:57.119Z,75.51
2024-01-15T07:24:57.294Z,76.51
2024-01-15T07:25:57.334Z,77.75
2024-01-15T07:26:57.247Z,76.81
2024-01-15T07:27:57.319Z,77.55
2024-01-15T07:28:57.347Z,77.30
2024-01-15T07:30:00.974Z,78.17
2024-01-15T07:30:58.199Z,78.27
2024-01-15T07:31:57.441Z,78.56
2024-01-15T07:32:57.642Z,78.98
2024-01-15T07:33:57.764Z,79.40
2024-01-15T07:34:57.869Z,81.57
2024-01-15T07:36:00.543Z,81.90
2024-01-15T07:36:59.178Z,81.95
2024-01-15T07:37:58.087Z,82.20
2024-01-15T07:38:58.085Z,82.44
2024-01-15T07:39:58.160Z,83.35
2024-01-15T07:40:58.216Z,84.55
2024-01-15T07:41:58.229Z,84.64
2024-01-15T07:42:58.157Z,85.49
2024-01-15T07:43:58.150Z,84.95
2024-01-15T07:44:58.154Z,86.78
2024-01-15T07:45:58.258Z,87.29
2024-01-15T07:46:58.245Z,88.17
2024-01-15T07:47:58.333Z,87.86
2024-01-15T07:48:58.311Z,88.83
2024-01-15T07:50:02.007Z,88.37
2024-01-15T07:50:58.320Z,88.43
2024-01-15T07:51:58.868Z,88.91
2024-01-15T07:52:58.351Z,89.31
2024-01-15T07:53:58.335Z,90.65
2024-01-15T07:54:58.773Z,92.16
2024-01-15T07:55:59.322Z,91.29
2024-01-15T07:56:58.749Z,90.78
2024-01-15T07:58:03.174Z,89.74
2024-01-15T07:58:58.304Z,89.78
2024-01-15T07:59:58.808Z,90.13
2024-01-15T08:00:58.436Z,90.40
2024-01-15T08:01:58.422Z,91.47
2024-01-15T08:02:58.761Z,91.69
2024-01-15T08:03:58.388Z,89.31
2024-01-15T08:04:58.332Z,89.71
2024-01-15T08:05:58.346Z,90.43
2024-01-15T08:06:59.276Z,87.63
2024-01-15T08:07:59.529Z,87.56
2024-01-15T08:08:58.340Z,87.35
2024-01-15T08:09:58.376Z,86.19
2024-01-15T08:10:58.325Z,84.21
2024-01-15T08:11:58.774Z,84.18
2024-01-15T08:12:58.343Z,84.26
2024-01-15T08:13:58.325Z,81.69
2024-01-15T08:14:59.361Z,86.38
2024-01-15T08:15:58.429Z,84.63
2024-01-15T08:16:58.743Z,83.84
2024-01-15T08:17:58.452Z,83.75
2024-01-15T08:18:58.894Z,81.92
2024-01-15T08:19:58.536Z,83.43
2024-01-15T08:20:58.481Z,81.31
2024-01-15T08:21:58.474Z,83.32
2024-01-15T08:22:58.740Z,82.08
2024-01-15T08:23:58.496Z,82.85
2024-01-15T08:24:58.585Z,82.25
2024-01-15T08:25:58.569Z,78.85
2024-01-15T08:26:58.610Z,82.61
2024-01-15T08:27:58.736Z,82.29
2024-01-15T08:28:58.653Z,81.46
2024-01-15T08:29:58.697Z,81.23
2024-01-15T08:30:58.847Z,80.98
2024-01-15T08:31:59.310Z,80.05
2024-01-15T08:33:04.654Z,81.74
2024-01-15T08:33:59.294Z,81.80
2024-01-15T08:34:59.026Z,81.91
2024-01-15T08:35:58.794Z,82.00
2024-01-15T08:36:59.313Z,81.02
2024-01-15T08:37:59.246Z,78.71
2024-01-15T08:38:58.807Z,77.79
2024-01-15T08:39:58.905Z,71.91
2024-01-15T08:40:58.830Z,71.74
2024-01-15T08:41:59.290Z,71.62
2024-01-15T08:42:59.320Z,72.86
2024-01-15T08:43:58.821Z,70.59
2024-01-15T08:44:59.249Z,71.62
2024-01-15T08:45:58.899Z,74.09
2024-01-15T08:46:58.831Z,75.14
2024-01-15T08:47:59.304Z,75.80
2024-01-15T08:48:59.466Z,75.64
2024-01-15T08:49:58.807Z,75.78
2024-01-15T08:50:59.243Z,77.92
2024-01-15T08:51:59.133Z,78.16
2024-01-15T08:52:59.123Z,77.68
2024-01-15T08:53:59.254Z,77.60
2024-01-15T08:54:59.159Z,78.71
2024-01-15T08:56:00.114Z,79.44
2024-01-15T08:56:59.360Z,81.78
2024-01-15T08:58:02.043Z,82.58
2024-01-15T08:58:58.846Z,82.65
2024-01-15T08:59:58.858Z,83.13
2024-01-15T09:00:58.974Z,83.87
2024-01-15T09:01:59.260Z,86.03
2024-01-15T09:02:59.212Z,88.97
2024-01-15T09:03:59.563Z,89.20
2024-01-15T09:04:59.474Z,91.41
2024-01-15T09:05:58.926Z,91.66
2024-01-15T09:06:59.292Z,92.66
2024-01-15T09:07:59.023Z,94.27
2024-01-15T09:08:58.860Z,93.14
2024-01-15T09:09:59.283Z,94.66
2024-01-15T09:10:58.856Z,95.18
2024-01-15T09:12:00.265Z,96.38
2024-01-15T09:12:58.960Z,96.86
2024-01-15T09:13:58.862Z,96.86
2024-01-15T09:14:58.864Z,97.37
2024-01-15T09:15:58.978Z,97.80
2024-01-15T09:16:59.256Z,99.41
2024-01-15T09:17:58.976Z,99.24
2024-01-15T09:18:59.348Z,99.46
2024-01-15T09:19:59.079Z,100.67
2024-01-15T09:20:59.084Z,100.70
2024-01-15T09:21:59.066Z,101.34
2024-01-15T09:22:59.088Z,101.14
2024-01-15T09:24:00.010Z,101.96
2024-01-15T09:24:59.443Z,102.05
2024-01-15T09:25:59.304Z,101.03
2024-01-15T09:26:59.181Z,101.08
2024-01-15T09:27:59.243Z,101.99
2024-01-15T09:28:59.918Z,101.44
2024-01-15T09:29:59.267Z,103.77
2024-01-15T09:30:59.969Z,102.89
2024-01-15T09:32:00.986Z,101.20
2024-01-15T09:32:59.866Z,102.01
2024-01-15T09:34:03.222Z,102.11
2024-01-15T09:34:59.775Z,102.03
2024-01-15T09:35:59.285Z,102.57
2024-01-15T09:37:00.313Z,103.29
2024-01-15T09:37:59.761Z,103.87
2024-01-15T09:38:59.658Z,105.62
2024-01-15T09:39:59.786Z,106.23
2024-01-15T09:41:04.102Z,105.52
2024-01-15T09:41:59.782Z,105.58
2024-01-15T09:42:59.406Z,105.57
2024-01-15T09:44:02.486Z,105.83
2024-01-15T09:44:59.364Z,105.60
2024-01-15T09:45:59.343Z,105.88
2024-01-15T09:46:59.772Z,105.95
2024-01-15T09:47:59.813Z,106.73
2024-01-15T09:48:59.378Z,106.87
2024-01-15T09:50:00.481Z,105.85
2024-01-15T09:50:59.313Z,107.11
2024-01-15T09:52:06.278Z,107.84
2024-01-15T09:52:59.924Z,107.81
2024-01-15T09:53:59.301Z,107.88
2024-01-15T09:54:59.362Z,106.69
2024-01-15T09:55:59.328Z,106.42
2024-01-15T09:56:59.303Z,107.96
2024-01-15T09:57:59.449Z,108.89
2024-01-15T09:58:59.310Z,106.88
2024-01-15T10:00:01.307Z,105.45
2024-01-15T10:00:59.409Z,105.91
2024-01-15T10:02:00.357Z,110.03
2024-01-15T10:02:59.314Z,107.82
2024-01-15T10:03:59.388Z,108.75
2024-01-15T10:04:59.358Z,108.54
2024-01-15T10:05:59.364Z,107.03
2024-01-15T10:06:59.379Z,108.73
2024-01-15T10:07:59.316Z,107.10
2024-01-15T10:09:02.509Z,108.75
2024-01-15T10:09:59.357Z,106.57
2024-01-15T10:10:59.781Z,108.79
2024-01-15T10:11:59.320Z,105.60
2024-01-15T10:12:59.367Z,109.22
2024-01-15T10:13:59.315Z,106.09
2024-01-15T10:14:59.331Z,106.20
2024-01-15T10:15:59.469Z,109.26
2024-01-15T10:16:59.777Z,106.20
2024-01-15T10:17:59.400Z,109.29
2024-01-15T10:18:59.877Z,107.27
2024-01-15T10:19:59.364Z,107.04
2024-01-15T10:20:59.330Z,108.41
2024-01-15T10:21:59.398Z,105.98
2024-01-15T10:23:00.310Z,105.84
2024-01-15T10:23:59.331Z,110.41
2024-01-15T10:24:59.360Z,104.68
2024-01-15T10:25:59.334Z,108.01
2024-01-15T10:26:59.778Z,107.38
2024-01-15T10:27:59.826Z,106.95
2024-01-15T10:28:59.340Z,110.11
2024-01-15T10:29:59.406Z,108.49
2024-01-15T10:30:59.525Z,103.38
2024-01-15T10:32:00.366Z,101.04
2024-01-15T10:32:59.481Z,99.64
2024-01-15T10:33:59.452Z,97.23
2024-01-15T10:34:59.436Z,91.42
2024-01-15T10:35:59.449Z,88.46
2024-01-15T10:37:00.469Z,87.96
2024-01-15T10:38:00.186Z,87.05
2024-01-15T10:38:59.638Z,85.28
2024-01-15T10:39:59.718Z,86.75
2024-01-15T10:41:07.727Z,82.87
2024-01-15T10:42:08.170Z,82.88
2024-01-15T10:43:07.131Z,82.96
2024-01-15T10:43:59.747Z,83.05
2024-01-15T10:44:59.734Z,83.62
2024-01-15T10:46:00.025Z,84.02
2024-01-15T10:47:00.677Z,85.30
2024-01-15T10:48:00.889Z,86.50
2024-01-15T10:49:00.238Z,82.56
2024-01-15T10:50:00.404Z,85.56
2024-01-15T10:51:00.097Z,86.35
2024-01-15T10:51:59.957Z,83.83
2024-01-15T10:53:00.702Z,87.18
2024-01-15T10:54:00.473Z,83.91
2024-01-15T10:55:03.922Z,86.63
2024-01-15T10:56:00.435Z,86.67
2024-01-15T10:57:00.297Z,86.77
2024-01-15T10:58:00.301Z,87.01
2024-01-15T10:59:01.128Z,88.20
2024-01-15T11:00:00.911Z,88.25
2024-01-15T11:01:00.674Z,95.02
2024-01-15T11:02:00.238Z,90.90
2024-01-15T11:02:59.944Z,93.18
2024-01-15T11:04:00.583Z,96.67
2024-01-15T11:05:00.683Z,96.31
2024-01-15T11:06:00.833Z,97.41
2024-01-15T11:07:00.657Z,100.02
2024-01-15T11:08:03.193Z,103.19
2024-01-15T11:08:59.957Z,103.08
2024-01-15T11:10:00.582Z,103.53
2024-01-15T11:11:00.951Z,104.44
2024-01-15T11:12:00.790Z,103.97
2024-01-15T11:13:00.622Z,108.58
2024-01-15T11:14:00.481Z,109.66
2024-01-15T11:15:00.841Z,109.75
2024-01-15T11:16:00.643Z,111.29
2024-01-15T11:17:00.584Z,113.34
2024-01-15T11:18:32.391Z,114.21
2024-01-15T11:19:00.922Z,114.32
2024-01-15T11:20:01.477Z,114.37
2024-01-15T11:21:00.632Z,114.84
2024-01-15T11:22:01.344Z,116.29
2024-01-15T11:23:00.647Z,118.79
2024-01-15T11:24:01.322Z,120.85
2024-01-15T11:25:01.004Z,123.83
2024-01-15T11:26:00.953Z,122.59
2024-01-15T11:27:00.589Z,125.68
2024-01-15T11:28:00.603Z,124.52
2024-01-15T11:29:02.520Z,125.27
2024-01-15T11:30:00.645Z,128.79
2024-01-15T11:31:00.831Z,134.37
2024-01-15T11:32:00.732Z,137.28
2024-01-15T11:33:00.935Z,138.19
2024-01-15T11:34:00.870Z,136.38
2024-01-15T11:35:01.296Z,137.26
2024-01-15T11:36:00.683Z,137.30
2024-01-15T11:37:00.722Z,133.54
2024-01-15T11:38:00.815Z,135.18
2024-01-15T11:39:00.664Z,136.54
2024-01-15T11:40:00.746Z,136.28
2024-01-15T11:41:00.676Z,136.92
2024-01-15T11:42:00.662Z,135.43
2024-01-15T11:43:00.962Z,136.71
2024-01-15T11:44:01.359Z,136.20
2024-01-15T11:45:00.821Z,135.32
2024-01-15T11:46:00.700Z,137.79
2024-01-15T11:47:00.664Z,135.97
2024-01-15T11:48:01.224Z,141.90
2024-01-15T11:49:00.744Z,138.96
2024-01-15T11:50:00.903Z,136.31
2024-01-15T11:51:00.671Z,141.33
2024-01-15T11:52:00.746Z,142.38
2024-01-15T11:53:03.429Z,141.75
2024-01-15T11:54:00.738Z,141.85
2024-01-15T11:55:01.708Z,142.11
2024-01-15T11:56:00.809Z,142.00
2024-01-15T11:57:00.798Z,143.11
2024-01-15T11:58:00.856Z,143.19
2024-01-15T11:59:03.149Z,144.02
2024-01-15T12:00:01.322Z,144.09
2024-01-15T12:01:01.996Z,144.38
2024-01-15T12:02:01.165Z,145.53
2024-01-15T12:03:01.328Z,145.29
2024-01-15T12:04:01.231Z,148.08
2024-01-15T12:05:01.180Z,148.58
2024-01-15T12:06:01.405Z,147.70
2024-01-15T12:07:01.193Z,147.13
2024-01-15T12:08:01.341Z,152.05
2024-01-15T12:09:01.822Z,150.64
2024-01-15T12:10:01.208Z,148.88
2024-01-15T12:11:01.322Z,150.38
2024-01-15T12:12:02.238Z,153.47
2024-01-15T12:13:01.409Z,152.39
2024-01-15T12:14:01.827Z,154.21
2024-01-15T12:15:01.344Z,154.56
2024-01-15T12:16:01.916Z,155.39
2024-01-15T12:17:04.464Z,157.25
2024-01-15T12:18:02.081Z,157.39
2024-01-15T12:19:01.583Z,158.21
2024-01-15T12:20:01.609Z,160.77
2024-01-15T12:21:01.569Z,164.36
2024-01-15T12:22:01.601Z,175.43
2024-01-15T12:23:03.967Z,180.07
2024-01-15T12:24:01.699Z,178.89
2024-01-15T12:25:01.686Z,180.17
2024-01-15T12:26:01.630Z,181.18
2024-01-15T12:27:01.683Z,182.02
2024-01-15T12:28:01.834Z,185.57
2024-01-15T12:29:01.635Z,184.44
2024-01-15T12:30:01.661Z,186.82
2024-01-15T12:31:01.996Z,187.46
2024-01-15T12:32:01.734Z,190.88
2024-01-15T12:33:01.858Z,191.05
2024-01-15T12:34:01.775Z,192.72
2024-01-15T12:35:04.399Z,194.25
2024-01-15T12:36:01.671Z,194.31
2024-01-15T12:37:01.791Z,194.98
2024-01-15T12:38:01.849Z,195.49
2024-01-15T12:39:01.650Z,196.46
2024-01-15T12:40:01.715Z,197.19
2024-01-15T12:41:01.657Z,197.77
2024-01-15T12:42:01.659Z,197.04
2024-01-15T12:43:02.195Z,199.55
2024-01-15T12:44:02.913Z,198.04
2024-01-15T12:45:01.840Z,197.83
2024-01-15T12:46:01.783Z,197.95
2024-01-15T12:47:01.664Z,199.41
2024-01-15T12:48:02.028Z,198.45
2024-01-15T12:49:01.782Z,198.99
2024-01-15T12:50:10.051Z,198.67
2024-01-15T12:51:01.786Z,198.72
2024-01-15T12:52:01.790Z,199.24
2024-01-15T12:53:01.841Z,199.93
2024-01-15T12:54:01.787Z,197.14
2024-01-15T12:55:01.784Z,198.99
2024-01-15T12:56:02.466Z,196.50
2024-01-15T12:57:02.432Z,198.70
2024-01-15T12:58:02.205Z,196.38
2024-01-15T12:59:01.802Z,196.63
2024-01-15T13:00:01.774Z,194.36
2024-01-15T13:01:02.559Z,190.74
2024-01-15T13:02:02.448Z,192.81
2024-01-15T13:03:02.229Z,191.01
2024-01-15T13:04:02.382Z,190.45
2024-01-15T13:05:02.607Z,189.25
2024-01-15T13:06:02.340Z,187.82
2024-01-15T13:07:02.952Z,191.38
2024-01-15T13:08:03.153Z,188.06
2024-01-15T13:09:01.953Z,193.04
2024-01-15T13:10:01.996Z,192.24
2024-01-15T13:11:02.045Z,191.13
2024-01-15T13:12:05.321Z,189.59
2024-01-15T13:13:02.559Z,189.65
2024-01-15T13:14:02.551Z,190.12
2024-01-15T13:15:02.471Z,191.09
2024-01-15T13:16:02.477Z,191.99
2024-01-15T13:17:02.768Z,192.73
2024-01-15T13:18:02.595Z,192.07
2024-01-15T13:19:02.947Z,193.93
2024-01-15T13:20:02.730Z,191.73
2024-01-15T13:21:02.495Z,191.21
2024-01-15T13:22:02.540Z,192.82
2024-01-15T13:23:02.494Z,193.59
2024-01-15T13:24:02.490Z,193.59
2024-01-15T13:25:02.578Z,194.17
2024-01-15T13:26:02.506Z,189.50
2024-01-15T13:27:02.516Z,192.97
2024-01-15T13:28:02.603Z,192.28
2024-01-15T13:29:02.546Z,191.91
2024-01-15T13:30:02.512Z,194.57
2024-01-15T13:31:02.661Z,193.58
2024-01-15T13:32:02.519Z,196.52
2024-01-15T13:33:02.901Z,194.56
2024-01-15T13:34:02.624Z,194.05
2024-01-15T13:35:02.523Z,197.07
2024-01-15T13:36:02.532Z,197.98
2024-01-15T13:37:02.562Z,196.01
2024-01-15T13:38:02.601Z,196.35